Loyd, Mississippi
Current Conditions -  °F | °C
As of 4:53 PM on Thursday 27 Nov 2014 (Local Time) from KTUP Reporting Station
Clear Clear  
Wind Chill: 39°   Ceiling: Unl
Heat Index: 39°   Visibility: 10mi
Dew Point: 27°   Wind: 3mph
Humidity: 62%   Direction: 10°N
Pressure: 30.47"   Gusts: NA
Location:  33.9472°N, 89.1968°W
Report Text: KTUP 272253Z 01003KT 10SM CLR 04/M03 A3047 RMK AO2 SLP319 T00391028 $
Loading
Personal Weather Stations






























Interactive Weather Map New forecast layout! Learn more

10-Day Weather Forecast

Advertisements
Track Severe Weather on mobile